Terminal Aerodrome Forecast
Issued by NWS

Home | Current Version | Previous Version | Text Only | Print | Product List | Glossary On
Versions: 1 2 3 4 5 6 7 8 9 10 11 12
700
FTUS45 KRIW 232320
TAFBPI
TAF
KBPI 232320Z 2400/2424 33017G25KT P6SM VCSH SCT060 BKN090
     FM240130 34009KT P6SM VCSH BKN060
     FM240400 31007KT P6SM BKN070
     FM241400 VRB06KT P6SM VCSH SCT040 BKN070
     FM241600 22009KT 6SM -SHRA SCT015 BKN025 OVC035=

USA.gov is the U.S. government's official web portal to all federal, state and local government web resources and services.